Time;durP1;ratioP1;P1;durP2;ratioP2;P2;SDS_P1;SDS_P2;PMS_P1;PMS_P2;Temp;Humidity;BMP_temperature;BMP_pressure;BME280_temperature;BME280_humidity;BME280_pressure;Samples;Min_cycle;Max_cycle;Signal;HPM_P1;HPM_P2
2022/09/13 00:02:10;;;;;;;;;;;17.50;99.90;;;;;;5038244;28;19921;-68
2022/09/13 00:04:35;;;;;;;;;;;17.40;99.90;;;;;;5076777;28;20014;-68
2022/09/13 00:07:01;;;;;;;;;;;17.40;99.90;;;;;;5074609;28;19920;-68
2022/09/13 00:09:26;;;;;;;;;;;17.40;99.90;;;;;;5073887;28;20019;-68
2022/09/13 00:11:52;;;;;;;;;;;17.40;99.90;;;;;;5057752;28;19920;-68
2022/09/13 00:14:17;;;;;;;;;;;17.40;99.90;;;;;;5074098;28;19958;-68
2022/09/13 00:16:43;;;;;;;;;;;17.40;99.90;;;;;;5057524;28;19931;-68
2022/09/13 00:19:08;;;;;;;;;;;17.40;99.90;;;;;;5074552;28;19999;-68
2022/09/13 00:21:34;;;;;;;;;;;17.40;99.90;;;;;;5072921;28;19931;-68
2022/09/13 00:23:59;;;;;;;;;;;17.40;99.90;;;;;;5073773;28;20003;-68
2022/09/13 00:26:26;;;;;;;;;;;17.40;99.90;;;;;;5073915;28;19928;-68
2022/09/13 00:28:52;;;;;;;;;;;17.40;99.90;;;;;;5046203;28;20277;-68
2022/09/13 00:31:19;;;;;;;;;;;17.50;99.90;;;;;;5073895;28;20314;-68
2022/09/13 00:33:44;;;;;;;;;;;17.50;99.90;;;;;;5073845;28;19963;-68
2022/09/13 00:36:10;;;;;;;;;;;17.60;99.90;;;;;;5073572;28;19978;-68
2022/09/13 00:38:36;;;;;;;;;;;17.60;99.90;;;;;;5084239;28;19925;-68
2022/09/13 00:41:03;;;;;;;;;;;17.50;99.90;;;;;;5088241;28;19974;-68
2022/09/13 00:43:47;;;;;;;;;;;17.60;99.90;;;;;;5073263;28;19973;-68
2022/09/13 00:46:21;;;;;;;;;;;17.60;99.90;;;;;;5075643;28;20019;-68
2022/09/13 00:48:48;;;;;;;;;;;17.50;99.90;;;;;;5071509;28;20450;-68
2022/09/13 00:51:14;;;;;;;;;;;17.50;99.90;;;;;;5089043;28;19966;-68
2022/09/13 00:53:41;;;;;;;;;;;17.60;99.90;;;;;;5083371;28;19924;-68
2022/09/13 00:56:08;;;;;;;;;;;17.50;99.90;;;;;;5070705;28;19921;-68
2022/09/13 00:58:34;;;;;;;;;;;17.50;99.90;;;;;;5070650;28;19931;-68
2022/09/13 01:01:01;;;;;;;;;;;17.50;99.90;;;;;;5088467;28;19920;-68
2022/09/13 01:03:29;;;;;;;;;;;17.40;99.90;;;;;;5090261;28;19995;-68
2022/09/13 01:06:00;;;;;;;;;;;17.40;99.90;;;;;;5070990;28;19928;-67
2022/09/13 01:08:28;;;;;;;;;;;17.40;99.90;;;;;;5087829;28;19966;-67
2022/09/13 01:10:55;;;;;;;;;;;17.40;99.90;;;;;;5073142;28;19920;-67
2022/09/13 01:13:22;;;;;;;;;;;17.40;99.90;;;;;;5066306;28;19920;-67
2022/09/13 01:15:47;;;;;;;;;;;17.40;99.90;;;;;;5091241;28;19966;-67
2022/09/13 01:18:13;;;;;;;;;;;17.40;99.90;;;;;;5053755;28;19963;-67
2022/09/13 01:20:45;;;;;;;;;;;17.40;99.90;;;;;;5068218;28;19921;-67
2022/09/13 01:23:19;;;;;;;;;;;17.40;99.90;;;;;;5068682;28;19924;-68
2022/09/13 01:25:53;;;;;;;;;;;17.40;99.90;;;;;;5071617;28;19963;-67
2022/09/13 01:28:38;;;;;;;;;;;17.30;99.90;;;;;;5065847;28;20303;-67
2022/09/13 01:31:26;;;;;;;;;;;17.30;99.90;;;;;;5050536;28;19930;-67
2022/09/13 01:33:57;;;;;;;;;;;17.30;99.90;;;;;;5067834;28;20050;-67
2022/09/13 01:36:23;;;;;;;;;;;17.30;99.90;;;;;;5079277;28;19927;-67
2022/09/13 01:38:49;;;;;;;;;;;17.30;99.90;;;;;;5075518;28;19920;-67
2022/09/13 01:41:34;;;;;;;;;;;17.30;99.90;;;;;;5073977;28;19923;-67
2022/09/13 01:44:08;;;;;;;;;;;17.30;99.90;;;;;;5076141;28;19955;-69
2022/09/13 01:46:40;;;;;;;;;;;17.30;99.90;;;;;;5093463;28;19951;-67
2022/09/13 01:49:13;;;;;;;;;;;17.30;99.90;;;;;;5094716;28;20706;-67
2022/09/13 01:51:45;;;;;;;;;;;17.30;99.90;;;;;;5059040;28;19920;-67
2022/09/13 01:54:11;;;;;;;;;;;17.30;99.90;;;;;;5073912;28;19965;-67
2022/09/13 01:56:44;;;;;;;;;;;17.30;99.90;;;;;;5074512;28;19963;-67
2022/09/13 01:59:20;;;;;;;;;;;17.30;99.90;;;;;;5092268;28;19920;-67
2022/09/13 02:01:51;;;;;;;;;;;17.30;99.90;;;;;;5068925;28;19924;-67
2022/09/13 02:04:26;;;;;;;;;;;17.30;99.90;;;;;;5075850;28;20639;-67
2022/09/13 02:07:00;;;;;;;;;;;17.30;99.90;;;;;;5074843;28;19931;-67
2022/09/13 02:09:27;;;;;;;;;;;17.30;99.90;;;;;;5058540;28;19924;-67
2022/09/13 02:11:55;;;;;;;;;;;17.30;99.90;;;;;;5074629;28;20351;-67
2022/09/13 02:14:23;;;;;;;;;;;17.30;99.90;;;;;;5075193;28;19925;-67
2022/09/13 02:16:52;;;;;;;;;;;17.30;99.90;;;;;;5093741;28;19927;-67
2022/09/13 02:19:20;;;;;;;;;;;17.20;99.90;;;;;;5074363;28;19956;-67
2022/09/13 02:21:53;;;;;;;;;;;17.20;99.90;;;;;;5075599;28;19919;-67
2022/09/13 02:24:21;;;;;;;;;;;17.20;99.90;;;;;;5075099;28;20285;-67
2022/09/13 02:26:50;;;;;;;;;;;17.20;99.90;;;;;;5074100;28;20030;-67
2022/09/13 02:29:17;;;;;;;;;;;17.20;99.90;;;;;;5075116;28;20383;-67
2022/09/13 02:31:46;;;;;;;;;;;17.20;99.90;;;;;;5074656;28;19931;-67
2022/09/13 02:34:19;;;;;;;;;;;17.20;99.90;;;;;;5069597;28;20274;-67
2022/09/13 02:36:45;;;;;;;;;;;17.20;99.90;;;;;;5061659;28;19970;-67
2022/09/13 02:39:18;;;;;;;;;;;17.10;99.90;;;;;;5058580;28;20285;-67
2022/09/13 02:41:46;;;;;;;;;;;17.10;99.90;;;;;;5092991;28;20039;-67
2022/09/13 02:44:15;;;;;;;;;;;17.10;99.90;;;;;;5056194;28;19924;-67
2022/09/13 02:46:59;;;;;;;;;;;17.10;99.90;;;;;;5074386;28;20493;-67
2022/09/13 02:49:39;;;;;;;;;;;17.10;99.90;;;;;;5092725;28;20369;-67
2022/09/13 02:52:15;;;;;;;;;;;17.00;99.90;;;;;;5064701;28;19963;-67
2022/09/13 02:54:46;;;;;;;;;;;17.00;99.90;;;;;;5075133;28;19974;-67
2022/09/13 02:57:14;;;;;;;;;;;17.00;99.90;;;;;;5070244;28;20320;-67
2022/09/13 02:59:39;;;;;;;;;;;17.00;99.90;;;;;;5073798;28;19965;-67
2022/09/13 03:02:31;;;;;;;;;;;17.00;99.90;;;;;;5070266;28;20342;-67
2022/09/13 03:04:57;;;;;;;;;;;17.00;99.90;;;;;;5088700;28;19931;-67
2022/09/13 03:07:23;;;;;;;;;;;17.00;99.90;;;;;;5072307;28;20416;-67
2022/09/13 03:09:57;;;;;;;;;;;17.00;99.90;;;;;;5072128;28;19920;-67
2022/09/13 03:12:40;;;;;;;;;;;17.00;99.90;;;;;;5070944;28;19924;-67
2022/09/13 03:15:08;;;;;;;;;;;17.00;99.90;;;;;;5066976;28;20026;-67
2022/09/13 03:17:34;;;;;;;;;;;17.00;99.90;;;;;;5069590;28;19928;-67
2022/09/13 03:20:08;;;;;;;;;;;17.00;99.90;;;;;;5074082;28;19920;-67
2022/09/13 03:22:52;;;;;;;;;;;17.10;99.90;;;;;;5074575;28;19920;-67
2022/09/13 03:25:27;;;;;;;;;;;17.10;99.90;;;;;;5074602;28;19924;-67
2022/09/13 03:28:16;;;;;;;;;;;17.10;99.90;;;;;;5075218;28;19920;-67
2022/09/13 03:30:47;;;;;;;;;;;17.20;99.90;;;;;;5066685;28;19942;-67
2022/09/13 03:33:24;;;;;;;;;;;17.20;99.90;;;;;;5074891;28;19920;-67
2022/09/13 03:35:49;;;;;;;;;;;17.20;99.90;;;;;;5066574;28;20002;-67
2022/09/13 03:38:20;;;;;;;;;;;17.20;99.90;;;;;;5057679;28;19970;-67
2022/09/13 03:40:50;;;;;;;;;;;17.20;99.90;;;;;;5062986;28;19920;-67
2022/09/13 03:43:19;;;;;;;;;;;17.30;99.90;;;;;;5058360;28;19971;-67
2022/09/13 03:45:50;;;;;;;;;;;17.30;99.90;;;;;;5070815;28;19928;-67
2022/09/13 03:48:16;;;;;;;;;;;17.30;99.90;;;;;;5074413;28;19953;-67
2022/09/13 03:50:41;;;;;;;;;;;17.30;99.90;;;;;;5073732;28;19927;-67
2022/09/13 03:53:09;;;;;;;;;;;17.40;99.90;;;;;;5081531;28;19924;-67
2022/09/13 03:55:38;;;;;;;;;;;17.40;99.90;;;;;;5096856;28;19920;-67
2022/09/13 03:58:03;;;;;;;;;;;17.40;99.90;;;;;;5079931;28;19926;-67
2022/09/13 04:00:29;;;;;;;;;;;17.40;99.90;;;;;;5080273;28;19931;-67
2022/09/13 04:02:54;;;;;;;;;;;17.40;99.90;;;;;;5080575;28;20369;-67
2022/09/13 04:05:20;;;;;;;;;;;17.40;99.90;;;;;;5081148;28;19966;-67
2022/09/13 04:07:45;;;;;;;;;;;17.40;99.90;;;;;;5097159;28;20368;-67
2022/09/13 04:10:11;;;;;;;;;;;17.40;99.90;;;;;;5091934;28;19921;-67
2022/09/13 04:12:37;;;;;;;;;;;17.40;99.90;;;;;;5086084;28;19930;-67
2022/09/13 04:15:03;;;;;;;;;;;17.40;99.90;;;;;;5102495;28;19920;-67
2022/09/13 04:17:28;;;;;;;;;;;17.40;99.90;;;;;;5086005;28;19972;-67
2022/09/13 04:19:54;;;;;;;;;;;17.50;99.90;;;;;;5100990;28;19928;-67
2022/09/13 04:22:19;;;;;;;;;;;17.40;99.90;;;;;;5082328;28;20258;-67
2022/09/13 04:24:45;;;;;;;;;;;17.50;99.90;;;;;;5078778;28;19927;-67
2022/09/13 04:27:11;;;;;;;;;;;17.40;99.90;;;;;;5076814;28;19920;-67
2022/09/13 04:29:36;;;;;;;;;;;17.50;99.90;;;;;;5080170;28;19924;-67
2022/09/13 04:32:02;;;;;;;;;;;17.40;99.90;;;;;;5079349;28;20007;-67
2022/09/13 04:34:27;;;;;;;;;;;17.40;99.90;;;;;;5078056;28;19924;-67
2022/09/13 04:36:53;;;;;;;;;;;17.50;99.90;;;;;;5102603;28;19978;-67
2022/09/13 04:39:19;;;;;;;;;;;17.40;99.90;;;;;;5081444;28;20425;-67
2022/09/13 04:41:47;;;;;;;;;;;17.50;99.90;;;;;;5092774;28;20543;-67
2022/09/13 04:44:13;;;;;;;;;;;17.40;99.90;;;;;;5084353;28;19924;-67
2022/09/13 04:46:38;;;;;;;;;;;17.50;99.90;;;;;;5080239;28;19982;-67
2022/09/13 04:49:04;;;;;;;;;;;17.50;99.90;;;;;;5097577;28;20490;-67
2022/09/13 04:51:29;;;;;;;;;;;17.50;99.90;;;;;;5079869;28;19920;-67
2022/09/13 04:53:55;;;;;;;;;;;17.50;99.90;;;;;;5078932;28;20364;-67
2022/09/13 04:56:22;;;;;;;;;;;17.40;99.90;;;;;;5080588;28;19959;-67
2022/09/13 04:58:49;;;;;;;;;;;17.50;99.90;;;;;;5076374;28;20023;-67
2022/09/13 05:01:15;;;;;;;;;;;17.50;99.90;;;;;;5074433;28;19920;-67
2022/09/13 05:03:40;;;;;;;;;;;17.50;99.90;;;;;;5069464;28;20388;-67
2022/09/13 05:06:07;;;;;;;;;;;17.50;99.90;;;;;;5088640;28;19930;-67
2022/09/13 05:08:33;;;;;;;;;;;17.40;99.90;;;;;;5038246;28;19924;-67
2022/09/13 05:10:59;;;;;;;;;;;17.50;99.90;;;;;;5074231;28;19920;-67
2022/09/13 05:13:25;;;;;;;;;;;17.40;99.90;;;;;;5094808;28;19959;-67
2022/09/13 05:15:54;;;;;;;;;;;17.40;99.90;;;;;;5075214;28;19920;-67
2022/09/13 05:18:19;;;;;;;;;;;17.40;99.90;;;;;;5077198;28;19931;-67
2022/09/13 05:20:45;;;;;;;;;;;17.40;99.90;;;;;;5054410;28;19919;-67
2022/09/13 05:23:10;;;;;;;;;;;17.40;99.90;;;;;;5085887;28;19928;-67
2022/09/13 05:25:36;;;;;;;;;;;17.50;99.90;;;;;;5094777;28;19924;-67
2022/09/13 05:28:01;;;;;;;;;;;17.40;99.90;;;;;;5084083;28;19958;-67
2022/09/13 05:30:26;;;;;;;;;;;17.50;99.90;;;;;;5095174;28;20301;-67
2022/09/13 05:32:52;;;;;;;;;;;17.40;99.90;;;;;;5074588;28;19920;-67
2022/09/13 05:35:17;;;;;;;;;;;17.50;99.90;;;;;;5078211;28;19920;-67
2022/09/13 05:37:43;;;;;;;;;;;17.50;99.90;;;;;;5075965;28;19960;-67
2022/09/13 05:40:09;;;;;;;;;;;17.40;99.90;;;;;;5056965;28;19931;-67
2022/09/13 05:42:34;;;;;;;;;;;17.50;99.90;;;;;;5074003;28;20006;-67
2022/09/13 05:45:00;;;;;;;;;;;17.50;99.90;;;;;;5093259;28;20014;-67
2022/09/13 05:47:25;;;;;;;;;;;17.50;99.90;;;;;;5076856;28;20289;-67
2022/09/13 05:49:51;;;;;;;;;;;17.40;99.90;;;;;;5061701;28;19959;-67
2022/09/13 05:52:16;;;;;;;;;;;17.50;99.90;;;;;;5059921;28;19943;-67
2022/09/13 05:54:41;;;;;;;;;;;17.50;99.90;;;;;;5085179;28;20110;-67
2022/09/13 05:57:07;;;;;;;;;;;17.40;99.90;;;;;;5088308;28;19931;-67
2022/09/13 05:59:32;;;;;;;;;;;17.50;99.90;;;;;;5053936;28;19924;-67
2022/09/13 06:01:58;;;;;;;;;;;17.40;99.90;;;;;;5062098;28;19955;-67
2022/09/13 06:04:23;;;;;;;;;;;17.40;99.90;;;;;;5061455;28;19942;-67
2022/09/13 06:06:49;;;;;;;;;;;17.40;99.90;;;;;;5090716;28;19920;-67
2022/09/13 06:09:15;;;;;;;;;;;17.50;99.90;;;;;;5065779;28;19970;-67
2022/09/13 06:11:40;;;;;;;;;;;17.40;99.90;;;;;;5062008;28;20017;-67
2022/09/13 06:14:06;;;;;;;;;;;17.40;99.90;;;;;;5082909;28;19924;-67
2022/09/13 06:16:31;;;;;;;;;;;17.40;99.90;;;;;;5061860;28;20025;-67
2022/09/13 06:18:57;;;;;;;;;;;17.40;99.90;;;;;;5064744;28;19932;-67
2022/09/13 06:21:23;;;;;;;;;;;17.40;99.90;;;;;;5062920;28;20019;-67
2022/09/13 06:23:49;;;;;;;;;;;17.40;99.90;;;;;;5092548;28;19930;-67
2022/09/13 06:26:16;;;;;;;;;;;17.30;99.90;;;;;;5059234;28;20268;-67
2022/09/13 06:28:42;;;;;;;;;;;17.30;99.90;;;;;;5094065;28;20361;-67
2022/09/13 06:31:09;;;;;;;;;;;17.30;99.90;;;;;;5065802;28;19970;-67
2022/09/13 06:33:35;;;;;;;;;;;17.30;99.90;;;;;;5067532;28;19970;-67
2022/09/13 06:36:05;;;;;;;;;;;17.30;99.90;;;;;;5093063;28;19920;-67
2022/09/13 06:38:30;;;;;;;;;;;17.40;99.90;;;;;;5071808;28;19920;-67
2022/09/13 06:41:03;;;;;;;;;;;17.40;99.90;;;;;;5091913;28;19932;-67
2022/09/13 06:43:29;;;;;;;;;;;17.50;99.90;;;;;;5075403;28;19928;-67
2022/09/13 06:45:58;;;;;;;;;;;17.50;99.90;;;;;;5074820;28;19924;-67
2022/09/13 06:48:23;;;;;;;;;;;17.60;99.90;;;;;;5073508;28;19924;-67
2022/09/13 06:50:49;;;;;;;;;;;17.70;99.90;;;;;;5076983;28;20286;-67
2022/09/13 06:53:14;;;;;;;;;;;17.80;99.90;;;;;;5064401;28;20009;-67
2022/09/13 06:55:40;;;;;;;;;;;17.80;99.90;;;;;;5061252;28;19926;-67
2022/09/13 06:58:05;;;;;;;;;;;17.80;99.90;;;;;;5060481;28;19921;-67
2022/09/13 07:00:31;;;;;;;;;;;17.90;99.90;;;;;;5063351;28;19920;-67
2022/09/13 07:02:56;;;;;;;;;;;18.00;99.90;;;;;;5066661;28;19997;-67
2022/09/13 07:05:22;;;;;;;;;;;18.00;99.90;;;;;;5064093;28;19928;-67
2022/09/13 07:07:47;;;;;;;;;;;18.00;99.90;;;;;;5065260;28;19963;-67
2022/09/13 07:10:13;;;;;;;;;;;18.10;99.90;;;;;;5070168;28;20277;-67
2022/09/13 07:12:41;;;;;;;;;;;18.10;99.90;;;;;;5058923;28;20361;-67
2022/09/13 07:15:07;;;;;;;;;;;18.20;99.90;;;;;;5058686;28;19928;-67
2022/09/13 07:17:32;;;;;;;;;;;18.30;99.90;;;;;;5085558;28;19973;-66
2022/09/13 07:19:58;;;;;;;;;;;18.40;99.90;;;;;;5073447;28;20015;-67
2022/09/13 07:22:26;;;;;;;;;;;18.60;99.90;;;;;;5073693;28;19946;-67
2022/09/13 07:24:52;;;;;;;;;;;18.70;99.90;;;;;;5057308;28;19924;-67
2022/09/13 07:27:18;;;;;;;;;;;18.80;99.90;;;;;;5081363;28;19947;-67
2022/09/13 07:29:43;;;;;;;;;;;18.80;99.90;;;;;;5093994;28;19967;-67
2022/09/13 07:32:08;;;;;;;;;;;19.00;99.90;;;;;;5090709;28;19999;-67
2022/09/13 07:34:34;;;;;;;;;;;19.10;99.90;;;;;;5068685;28;20285;-67
2022/09/13 07:37:00;;;;;;;;;;;19.30;99.90;;;;;;5074258;28;19920;-70
2022/09/13 07:39:25;;;;;;;;;;;19.40;99.90;;;;;;5067564;22;19925;-67
2022/09/13 07:41:52;;;;;;;;;;;19.50;99.90;;;;;;5048553;28;19931;-67
2022/09/13 07:44:18;;;;;;;;;;;19.50;99.90;;;;;;5054278;28;19924;-67
2022/09/13 07:46:43;;;;;;;;;;;19.50;99.90;;;;;;5049799;28;19927;-67
2022/09/13 07:49:10;;;;;;;;;;;19.50;99.90;;;;;;5052344;28;20377;-67
2022/09/13 07:51:38;;;;;;;;;;;19.50;99.90;;;;;;5037388;28;19925;-67
2022/09/13 07:54:05;;;;;;;;;;;19.60;99.90;;;;;;5054021;28;19924;-67
2022/09/13 07:56:31;;;;;;;;;;;19.50;99.90;;;;;;5050263;28;20058;-67
2022/09/13 07:58:59;;;;;;;;;;;19.60;99.90;;;;;;5045556;28;20319;-67
2022/09/13 08:01:44;;;;;;;;;;;19.70;99.90;;;;;;5068628;28;19971;-67
2022/09/13 08:04:11;;;;;;;;;;;19.70;99.90;;;;;;5053975;28;20058;-67
2022/09/13 08:06:37;;;;;;;;;;;19.70;99.90;;;;;;5049130;28;20294;-67
2022/09/13 08:09:04;;;;;;;;;;;19.80;99.90;;;;;;5043891;28;19925;-67
2022/09/13 08:11:31;;;;;;;;;;;19.80;99.90;;;;;;5054189;28;20384;-67
2022/09/13 08:13:56;;;;;;;;;;;19.60;99.90;;;;;;5051298;28;19928;-67
2022/09/13 08:16:22;;;;;;;;;;;19.70;99.90;;;;;;5067848;28;19921;-68
2022/09/13 08:18:52;;;;;;;;;;;19.70;99.90;;;;;;5052702;28;19934;-67
2022/09/13 08:21:19;;;;;;;;;;;19.80;99.90;;;;;;5069868;28;19925;-68
2022/09/13 08:23:45;;;;;;;;;;;19.70;99.90;;;;;;5052382;28;19924;-68
2022/09/13 08:26:10;;;;;;;;;;;19.60;99.90;;;;;;5051538;28;19921;-67
2022/09/13 08:28:37;;;;;;;;;;;19.70;99.90;;;;;;5052377;28;20011;-67
2022/09/13 08:31:03;;;;;;;;;;;19.60;99.90;;;;;;5051823;28;20106;-67
2022/09/13 08:33:29;;;;;;;;;;;19.60;99.90;;;;;;5053041;28;19924;-67
2022/09/13 08:35:56;;;;;;;;;;;19.70;99.90;;;;;;5051597;28;20262;-67
2022/09/13 08:38:22;;;;;;;;;;;19.90;99.90;;;;;;5067695;28;19967;-67
2022/09/13 08:40:55;;;;;;;;;;;19.90;99.90;;;;;;5070895;28;19964;-67
2022/09/13 08:43:21;;;;;;;;;;;20.00;99.90;;;;;;5051879;28;20365;-67
2022/09/13 08:46:08;;;;;;;;;;;20.20;99.90;;;;;;5069892;28;19932;-67
2022/09/13 08:48:35;;;;;;;;;;;20.40;99.90;;;;;;5046958;28;19937;-67
2022/09/13 08:51:03;;;;;;;;;;;20.50;99.90;;;;;;5049448;28;19921;-67
2022/09/13 08:53:29;;;;;;;;;;;20.50;99.90;;;;;;5052393;28;20531;-67
2022/09/13 08:55:57;;;;;;;;;;;20.60;99.90;;;;;;5050031;28;20466;-67
2022/09/13 08:58:26;;;;;;;;;;;20.60;99.90;;;;;;5049654;28;20411;-67
2022/09/13 09:00:57;;;;;;;;;;;20.70;99.90;;;;;;5069037;28;19928;-67
2022/09/13 09:03:28;;;;;;;;;;;20.70;99.90;;;;;;5053647;28;19920;-67
2022/09/13 09:05:53;;;;;;;;;;;20.60;99.90;;;;;;5036995;28;19949;-67
2022/09/13 09:08:26;;;;;;;;;;;20.70;99.90;;;;;;5050764;28;20065;-67
2022/09/13 09:10:54;;;;;;;;;;;20.60;99.90;;;;;;5050680;28;19924;-67
2022/09/13 09:13:26;;;;;;;;;;;20.90;99.90;;;;;;5053294;28;19920;-67
2022/09/13 09:15:53;;;;;;;;;;;20.90;99.90;;;;;;5048256;28;20454;-67
2022/09/13 09:18:24;;;;;;;;;;;20.80;99.90;;;;;;5052014;28;20309;-67
2022/09/13 09:20:52;;;;;;;;;;;20.90;99.90;;;;;;5070049;28;19921;-67
2022/09/13 09:23:30;;;;;;;;;;;21.00;99.90;;;;;;5046255;28;19920;-67
2022/09/13 09:26:12;;;;;;;;;;;20.80;99.90;;;;;;5052044;28;20391;-67
2022/09/13 09:28:38;;;;;;;;;;;20.50;99.90;;;;;;5053164;28;20344;-67
2022/09/13 09:31:07;;;;;;;;;;;20.30;99.90;;;;;;5036913;28;20004;-67
2022/09/13 09:33:45;;;;;;;;;;;20.40;99.90;;;;;;5067018;28;19920;-67
2022/09/13 09:36:18;;;;;;;;;;;20.60;99.90;;;;;;5071065;28;19931;-67
2022/09/13 09:38:43;;;;;;;;;;;20.70;99.90;;;;;;5061433;28;20406;-65
2022/09/13 09:41:12;;;;;;;;;;;21.10;99.90;;;;;;5064520;28;19928;-65
2022/09/13 09:43:41;;;;;;;;;;;21.30;99.90;;;;;;5047998;28;19942;-65
2022/09/13 09:46:08;;;;;;;;;;;21.40;99.90;;;;;;5052779;28;19952;-65
2022/09/13 09:48:47;;;;;;;;;;;21.60;99.90;;;;;;5070939;28;19935;-65
2022/09/13 09:51:14;;;;;;;;;;;21.50;99.20;;;;;;5052879;28;19924;-65
2022/09/13 09:53:42;;;;;;;;;;;21.60;99.60;;;;;;5068325;28;19928;-65
2022/09/13 09:56:20;;;;;;;;;;;21.70;99.90;;;;;;5067715;28;19925;-65
2022/09/13 09:58:45;;;;;;;;;;;21.70;99.90;;;;;;5071233;28;20308;-65
2022/09/13 10:01:16;;;;;;;;;;;21.80;99.90;;;;;;5074174;28;19921;-65
2022/09/13 10:03:48;;;;;;;;;;;21.60;99.00;;;;;;5059914;28;19943;-65
2022/09/13 10:06:17;;;;;;;;;;;21.30;99.90;;;;;;5063865;28;19928;-65
2022/09/13 10:08:46;;;;;;;;;;;20.90;99.90;;;;;;5055758;28;20493;-65
2022/09/13 10:11:12;;;;;;;;;;;20.90;99.90;;;;;;5069265;28;19946;-65
2022/09/13 10:13:37;;;;;;;;;;;20.90;99.90;;;;;;5051342;28;19924;-65
2022/09/13 10:16:04;;;;;;;;;;;20.80;99.90;;;;;;5057157;28;20282;-65
2022/09/13 10:18:34;;;;;;;;;;;20.80;99.90;;;;;;5072989;28;20006;-65
2022/09/13 10:21:00;;;;;;;;;;;20.70;98.90;;;;;;5072335;28;19927;-65
2022/09/13 10:23:26;;;;;;;;;;;20.80;99.90;;;;;;5054387;28;19920;-65
2022/09/13 10:26:10;;;;;;;;;;;21.00;99.90;;;;;;5073387;28;19982;-65
2022/09/13 10:28:45;;;;;;;;;;;21.30;99.90;;;;;;5067701;28;19929;-65
2022/09/13 10:31:12;;;;;;;;;;;21.50;99.90;;;;;;5074071;28;19942;-65
2022/09/13 10:33:39;;;;;;;;;;;21.60;99.90;;;;;;5074094;28;19929;-65
2022/09/13 10:36:14;;;;;;;;;;;21.60;99.70;;;;;;5054738;28;19927;-65
2022/09/13 10:38:41;;;;;;;;;;;21.20;96.70;;;;;;5073852;28;19920;-65
2022/09/13 10:41:08;;;;;;;;;;;21.20;99.00;;;;;;5055791;28;19931;-65
2022/09/13 10:43:34;;;;;;;;;;;21.40;97.30;;;;;;5065340;28;19924;-65
2022/09/13 10:46:01;;;;;;;;;;;21.40;98.40;;;;;;5035611;28;19927;-65
2022/09/13 10:48:28;;;;;;;;;;;21.50;98.70;;;;;;5035875;28;19963;-67
2022/09/13 10:51:00;;;;;;;;;;;21.60;98.50;;;;;;5035671;28;19921;-67
2022/09/13 10:53:30;;;;;;;;;;;21.80;97.30;;;;;;5035843;28;20317;-67
2022/09/13 10:55:55;;;;;;;;;;;22.00;98.30;;;;;;5036020;28;20010;-67
2022/09/13 10:58:21;;;;;;;;;;;22.20;96.90;;;;;;5063462;28;20381;-67
2022/09/13 11:00:55;;;;;;;;;;;22.10;96.30;;;;;;5042412;28;19960;-67
2022/09/13 11:03:24;;;;;;;;;;;22.00;96.60;;;;;;5055134;28;19927;-67
2022/09/13 11:06:01;;;;;;;;;;;21.80;96.90;;;;;;5054596;28;19924;-67
2022/09/13 11:08:33;;;;;;;;;;;21.70;97.00;;;;;;5056492;28;19936;-67
2022/09/13 11:11:13;;;;;;;;;;;22.00;97.70;;;;;;5050395;28;19924;-67
2022/09/13 11:13:51;;;;;;;;;;;22.20;97.40;;;;;;5073519;28;19924;-67
2022/09/13 11:16:25;;;;;;;;;;;22.20;97.30;;;;;;5054755;28;19931;-67
2022/09/13 11:18:50;;;;;;;;;;;22.30;96.90;;;;;;5052570;28;19924;-67
2022/09/13 11:21:36;;;;;;;;;;;21.90;95.90;;;;;;5061837;28;19927;-67
2022/09/13 11:24:05;;;;;;;;;;;21.90;97.30;;;;;;5069705;28;19932;-67
2022/09/13 11:26:42;;;;;;;;;;;21.60;97.60;;;;;;5054679;28;19925;-67
2022/09/13 11:29:19;;;;;;;;;;;21.70;97.80;;;;;;5050481;28;19954;-67
2022/09/13 11:31:54;;;;;;;;;;;21.70;97.80;;;;;;5042266;28;19928;-67
2022/09/13 11:34:20;;;;;;;;;;;22.00;96.60;;;;;;5051821;28;19920;-67
2022/09/13 11:36:53;;;;;;;;;;;22.10;96.80;;;;;;5054777;28;20324;-67
2022/09/13 11:39:22;;;;;;;;;;;22.30;95.40;;;;;;5069231;28;19924;-67
2022/09/13 11:41:56;;;;;;;;;;;22.40;96.80;;;;;;5053598;28;19925;-67
2022/09/13 11:44:25;;;;;;;;;;;22.50;95.40;;;;;;5038101;28;19925;-67
2022/09/13 11:47:05;;;;;;;;;;;22.60;96.40;;;;;;5064911;28;19928;-67
2022/09/13 11:49:50;;;;;;;;;;;22.70;93.90;;;;;;5046259;28;19931;-66
2022/09/13 11:52:15;;;;;;;;;;;22.30;93.40;;;;;;5071777;28;19925;-67
2022/09/13 11:54:47;;;;;;;;;;;21.80;94.00;;;;;;5050659;28;20259;-66
2022/09/13 11:57:18;;;;;;;;;;;21.80;95.80;;;;;;5054132;28;20266;-67
2022/09/13 11:59:48;;;;;;;;;;;21.90;96.70;;;;;;5072228;28;20328;-67
2022/09/13 12:02:28;;;;;;;;;;;21.90;96.20;;;;;;5056823;28;19921;-67
2022/09/13 12:05:00;;;;;;;;;;;21.90;96.10;;;;;;5069558;28;19999;-67
2022/09/13 12:07:48;;;;;;;;;;;21.90;94.00;;;;;;5053318;28;20023;-67
2022/09/13 12:10:16;;;;;;;;;;;21.90;92.10;;;;;;5050348;28;19920;-67
2022/09/13 12:12:42;;;;;;;;;;;22.00;94.30;;;;;;5068334;28;20273;-67
2022/09/13 12:15:14;;;;;;;;;;;22.10;95.00;;;;;;5064438;28;19921;-67
2022/09/13 12:17:45;;;;;;;;;;;22.30;94.90;;;;;;5071751;28;19932;-67
2022/09/13 12:20:31;;;;;;;;;;;22.20;93.90;;;;;;5030135;28;19994;-67
2022/09/13 12:22:59;;;;;;;;;;;22.20;95.20;;;;;;5046099;28;19920;-66
2022/09/13 12:25:30;;;;;;;;;;;22.00;94.80;;;;;;5053559;28;19924;-66
2022/09/13 12:28:01;;;;;;;;;;;21.80;92.80;;;;;;5048004;28;19935;-66
2022/09/13 12:30:38;;;;;;;;;;;21.90;95.00;;;;;;5070949;28;20377;-67
2022/09/13 12:33:04;;;;;;;;;;;22.00;95.30;;;;;;5068189;28;20389;-67
2022/09/13 12:35:30;;;;;;;;;;;22.00;93.70;;;;;;5045246;28;19971;-67
2022/09/13 12:38:14;;;;;;;;;;;21.90;92.90;;;;;;5042163;28;19928;-67
2022/09/13 12:40:41;;;;;;;;;;;21.90;93.30;;;;;;5053020;28;19924;-67
2022/09/13 12:43:10;;;;;;;;;;;22.00;94.90;;;;;;5065976;28;19959;-67
2022/09/13 12:45:54;;;;;;;;;;;22.00;93.50;;;;;;5040401;28;19925;-66
2022/09/13 12:48:28;;;;;;;;;;;22.10;93.60;;;;;;5064238;28;20352;-66
2022/09/13 12:50:57;;;;;;;;;;;22.10;94.40;;;;;;5045411;28;20020;-66
2022/09/13 12:53:50;;;;;;;;;;;22.20;93.70;;;;;;5058913;28;19921;-66
2022/09/13 12:56:18;;;;;;;;;;;22.00;93.00;;;;;;5065255;28;19955;-65
2022/09/13 12:58:53;;;;;;;;;;;21.90;93.90;;;;;;5050643;28;19925;-65
2022/09/13 13:01:20;;;;;;;;;;;22.00;95.00;;;;;;5065351;28;19939;-65
2022/09/13 13:03:56;;;;;;;;;;;22.00;94.10;;;;;;5049630;28;19921;-65
2022/09/13 13:06:31;;;;;;;;;;;22.00;94.40;;;;;;5071646;28;19921;-65
2022/09/13 13:08:59;;;;;;;;;;;22.10;94.50;;;;;;5063688;28;19948;-65
2022/09/13 13:11:26;;;;;;;;;;;21.80;93.50;;;;;;5060379;28;20373;-65
2022/09/13 13:14:00;;;;;;;;;;;21.90;94.20;;;;;;5045648;28;19977;-65
2022/09/13 13:16:33;;;;;;;;;;;22.00;95.50;;;;;;5020554;28;19931;-65
2022/09/13 13:19:21;;;;;;;;;;;22.00;95.60;;;;;;5066857;28;19931;-65
2022/09/13 13:21:47;;;;;;;;;;;22.10;95.60;;;;;;5043100;28;19929;-65
2022/09/13 13:24:15;;;;;;;;;;;22.30;94.60;;;;;;5039066;28;20263;-65
2022/09/13 13:26:41;;;;;;;;;;;22.40;94.20;;;;;;5065537;28;19971;-65
2022/09/13 13:29:14;;;;;;;;;;;22.10;92.80;;;;;;5057868;28;20563;-65
2022/09/13 13:31:41;;;;;;;;;;;22.00;93.50;;;;;;5047889;28;19921;-65
2022/09/13 13:34:10;;;;;;;;;;;21.70;93.40;;;;;;5042491;28;19925;-65
2022/09/13 13:36:38;;;;;;;;;;;21.90;95.30;;;;;;5071848;28;20517;-65
2022/09/13 13:39:04;;;;;;;;;;;21.80;94.00;;;;;;5064781;28;20341;-65
2022/09/13 13:41:32;;;;;;;;;;;21.80;94.90;;;;;;5061832;28;20008;-65
2022/09/13 13:44:21;;;;;;;;;;;21.90;95.50;;;;;;5063142;28;20278;-65
2022/09/13 13:46:50;;;;;;;;;;;22.00;95.60;;;;;;5035213;28;19999;-65
2022/09/13 13:49:28;;;;;;;;;;;22.10;94.30;;;;;;5052897;28;19928;-65
2022/09/13 13:52:14;;;;;;;;;;;22.20;95.10;;;;;;5071348;28;19928;-65
2022/09/13 13:54:58;;;;;;;;;;;22.50;94.00;;;;;;5074715;28;19921;-65
2022/09/13 13:57:34;;;;;;;;;;;22.70;94.30;;;;;;5057082;28;20332;-65
2022/09/13 14:00:14;;;;;;;;;;;22.70;94.20;;;;;;5068821;28;19927;-65
2022/09/13 14:02:49;;;;;;;;;;;22.60;92.90;;;;;;5039380;28;19924;-68
2022/09/13 14:05:19;;;;;;;;;;;22.40;92.60;;;;;;5052523;28;19927;-68
2022/09/13 14:07:56;;;;;;;;;;;22.60;94.60;;;;;;5071965;28;19928;-68
2022/09/13 14:10:42;;;;;;;;;;;22.60;94.80;;;;;;5036215;28;19920;-68
2022/09/13 14:13:32;;;;;;;;;;;21.90;93.50;;;;;;5048049;28;20381;-68
2022/09/13 14:16:20;;;;;;;;;;;21.70;94.60;;;;;;5036341;28;19960;-68
2022/09/13 14:18:52;;;;;;;;;;;21.70;95.50;;;;;;5063305;28;20610;-68
2022/09/13 14:21:19;;;;;;;;;;;21.70;94.00;;;;;;5072681;28;19971;-68
2022/09/13 14:23:45;;;;;;;;;;;22.00;94.30;;;;;;5071062;28;20571;-67
2022/09/13 14:26:10;;;;;;;;;;;22.10;95.80;;;;;;5052055;28;20011;-68
2022/09/13 14:28:37;;;;;;;;;;;22.20;96.30;;;;;;5036889;28;19925;-68
2022/09/13 14:31:02;;;;;;;;;;;22.10;93.30;;;;;;5060404;28;19959;-68